Time;durP1;ratioP1;P1;durP2;ratioP2;P2;SDS_P1;SDS_P2;PMS_P1;PMS_P2;Temp;Humidity;BMP_temperature;BMP_pressure;BME280_temperature;BME280_humidity;BME280_pressure;Samples;Min_cycle;Max_cycle;Signal;HPM_P1;HPM_P2
2023/03/22 00:01:22;;;;;;;34.17;27.38;;;;;;;10.95;93.04;97381.50;10405710;28;20747;-54
2023/03/22 00:06:22;;;;;;;42.72;31.80;;;;;;;10.95;93.50;97377.16;10405220;28;20064;-54
2023/03/22 00:11:26;;;;;;;48.15;34.33;;;;;;;11.00;93.46;97374.53;10406334;28;20127;-54
2023/03/22 00:16:25;;;;;;;48.92;36.65;;;;;;;10.75;92.54;97329.72;10407952;28;20064;-54
2023/03/22 00:21:24;;;;;;;41.55;31.23;;;;;;;10.99;92.68;97386.66;10409733;28;20800;-54
2023/03/22 00:26:23;;;;;;;43.65;31.38;;;;;;;11.03;92.86;97371.88;10407305;28;20890;-54
2023/03/22 00:31:22;;;;;;;40.25;30.80;;;;;;;10.98;93.04;97366.75;10405830;28;20036;-54
2023/03/22 00:36:21;;;;;;;41.90;32.97;;;;;;;10.93;92.65;97352.94;10409420;28;20035;-54
2023/03/22 00:41:21;;;;;;;42.97;31.70;;;;;;;10.76;93.25;97349.63;10403905;28;20024;-54
2023/03/22 00:46:21;;;;;;;41.60;30.48;;;;;;;10.65;93.85;97351.44;10406933;28;20760;-54
2023/03/22 00:51:19;;;;;;;40.35;29.05;;;;;;;10.64;94.83;97349.72;10402265;28;20127;-54
2023/03/22 00:56:21;;;;;;;36.63;25.40;;;;;;;10.47;94.16;97326.47;10402796;28;20028;-54
2023/03/22 01:01:20;;;;;;;34.63;25.98;;;;;;;10.59;95.00;97345.41;10405113;28;20147;-54
2023/03/22 01:06:19;;;;;;;45.20;30.55;;;;;;;10.67;95.45;97349.69;10405313;28;20115;-54
2023/03/22 01:11:18;;;;;;;;;;;;;;;10.58;94.98;97343.69;10404678;28;20159;-53
2023/03/22 01:16:17;;;;;;;56.13;38.80;;;;;;;10.53;95.21;97342.84;10405592;28;20007;-53
2023/03/22 01:21:16;;;;;;;56.10;37.67;;;;;;;10.38;95.94;97340.38;10409356;28;20067;-53
2023/03/22 01:26:15;;;;;;;40.88;29.83;;;;;;;10.24;97.04;97318.84;10406315;28;20056;-53
2023/03/22 01:31:14;;;;;;;37.85;26.90;;;;;;;10.45;97.16;97341.19;10406602;28;20430;-53
2023/03/22 01:36:13;;;;;;;36.55;26.52;;;;;;;10.52;96.59;97333.38;10403576;28;20514;-53
2023/03/22 01:41:12;;;;;;;46.28;31.38;;;;;;;10.34;96.11;97320.53;10406057;28;20043;-53
2023/03/22 01:46:11;;;;;;;77.93;33.90;;;;;;;9.97;96.92;97337.16;10405095;28;20028;-53
2023/03/22 01:51:21;;;;;;;65.70;33.38;;;;;;;9.55;100.00;97325.28;10405572;28;20929;-52
2023/03/22 01:56:24;;;;;;;58.42;36.47;;;;;;;9.35;100.00;97326.22;10405014;28;20147;-54
2023/03/22 02:01:24;;;;;;;59.20;34.28;;;;;;;9.21;100.00;97333.13;10405723;28;20497;-54
2023/03/22 02:06:25;;;;;;;48.90;29.42;;;;;;;9.23;100.00;97326.22;10404036;28;20060;-54
2023/03/22 02:11:31;;;;;;;79.15;43.97;;;;;;;9.28;100.00;97334.88;10404241;28;20116;-53
2023/03/22 02:16:33;;;;;;;106.18;62.80;;;;;;;9.46;100.00;97343.44;10404759;28;20593;-54
2023/03/22 02:21:51;;;;;;;63.83;39.00;;;;;;;9.61;100.00;97343.38;10405050;28;20498;-54
2023/03/22 02:27:22;;;;;;;65.70;38.92;;;;;;;9.70;100.00;97338.19;10404198;28;20083;-54
2023/03/22 02:32:42;;;;;;;37.90;26.35;;;;;;;9.59;100.00;97349.44;10404829;28;20119;-54
2023/03/22 02:37:50;;;;;;;59.90;39.65;;;;;;;9.42;100.00;97354.66;10402459;28;20139;-54
2023/03/22 02:42:58;;;;;;;61.50;42.30;;;;;;;9.38;100.00;97350.38;10404767;28;20044;-54
2023/03/22 02:48:15;;;;;;;49.63;36.17;;;;;;;9.48;100.00;97359.81;10403902;28;20123;-54
2023/03/22 02:53:23;;;;;;;42.65;29.75;;;;;;;9.67;100.00;97361.47;10403960;28;20119;-54
2023/03/22 02:58:27;;;;;;;34.15;25.00;;;;;;;9.84;100.00;97365.72;10404564;28;20136;-53
2023/03/22 03:03:29;;;;;;;35.03;24.75;;;;;;;9.98;100.00;97370.00;10404044;28;20095;-53
2023/03/22 03:08:29;;;;;;;30.15;21.55;;;;;;;9.83;99.67;97322.56;10404199;28;20072;-54
2023/03/22 03:13:29;;;;;;;30.77;22.30;;;;;;;10.12;99.03;97369.94;10404413;28;20529;-55
2023/03/22 03:18:53;;;;;;;30.13;20.88;;;;;;;10.01;98.32;97352.72;10407296;28;20506;-54
2023/03/22 03:24:01;;;;;;;27.85;20.58;;;;;;;10.07;98.66;97358.69;10411060;28;20107;-55
2023/03/22 03:29:19;;;;;;;27.15;19.38;;;;;;;10.16;98.31;97369.03;10410859;28;20592;-55
2023/03/22 03:34:24;;;;;;;26.98;19.58;;;;;;;10.21;98.12;97363.81;10412187;28;20065;-54
2023/03/22 03:39:28;;;;;;;25.38;19.38;;;;;;;10.28;98.23;97368.09;10410646;28;20605;-54
2023/03/22 03:44:30;;;;;;;30.15;21.85;;;;;;;10.26;97.62;97363.78;10410993;28;20072;-54
2023/03/22 03:49:29;;;;;;;29.27;20.92;;;;;;;10.25;96.49;97375.91;10411118;28;20127;-55
2023/03/22 03:54:28;;;;;;;25.73;19.88;;;;;;;10.23;97.10;97364.66;10410144;28;20087;-55
2023/03/22 03:59:27;;;;;;;29.05;20.50;;;;;;;10.26;96.91;97369.88;10409308;28;20131;-55
2023/03/22 04:04:27;;;;;;;28.88;22.13;;;;;;;10.28;96.19;97382.81;10409909;28;20132;-54
2023/03/22 04:09:33;;;;;;;25.17;18.95;;;;;;;10.19;95.77;97384.59;10408096;28;20139;-54
2023/03/22 04:14:32;;;;;;;25.95;19.58;;;;;;;10.01;96.04;97389.88;10409512;28;20151;-54
2023/03/22 04:19:31;;;;;;;26.67;19.80;;;;;;;9.80;96.11;97390.81;10409170;28;20036;-53
2023/03/22 04:24:30;;;;;;;25.85;18.95;;;;;;;9.81;97.19;97402.03;10406385;28;20067;-53
2023/03/22 04:29:30;;;;;;;22.25;17.67;;;;;;;9.85;97.65;97402.03;10404453;28;20040;-53
2023/03/22 04:34:30;;;;;;;22.40;17.55;;;;;;;9.81;97.74;97392.53;10405133;28;20536;-54
2023/03/22 04:39:29;;;;;;;22.75;18.20;;;;;;;9.93;97.37;97412.34;10407752;28;20071;-54
2023/03/22 04:44:28;;;;;;;22.80;18.42;;;;;;;9.98;97.69;97403.69;10407631;28;20028;-54
2023/03/22 04:49:27;;;;;;;23.90;18.80;;;;;;;10.04;97.12;97412.31;10407097;28;20028;-54
2023/03/22 04:54:26;;;;;;;21.48;16.27;;;;;;;9.89;97.45;97376.97;10406844;28;20028;-54
2023/03/22 04:59:25;;;;;;;24.42;18.33;;;;;;;10.14;97.69;97419.16;10406269;28;20127;-55
2023/03/22 05:04:26;;;;;;;24.27;18.15;;;;;;;10.11;97.61;97409.69;10406600;28;20839;-55
2023/03/22 05:09:25;;;;;;;24.25;17.98;;;;;;;10.29;97.35;97436.41;10405931;28;20131;-54
2023/03/22 05:14:24;;;;;;;25.00;19.05;;;;;;;10.25;97.58;97430.34;10406605;28;20048;-53
2023/03/22 05:19:23;;;;;;;29.00;22.65;;;;;;;10.40;97.46;97445.84;10406299;28;20053;-55
2023/03/22 05:24:22;;;;;;;31.83;23.05;;;;;;;10.45;96.76;97453.63;10406581;28;20330;-54
2023/03/22 05:29:21;;;;;;;;;;;;;;;10.47;96.56;97446.69;10402520;28;20143;-54
2023/03/22 05:34:20;;;;;;;28.55;23.95;;;;;;;10.29;96.20;97421.69;10405952;28;19927;-54
2023/03/22 05:39:19;;;;;;;31.25;23.75;;;;;;;10.50;96.70;97470.00;10404632;28;20143;-53
2023/03/22 05:44:18;;;;;;;28.65;21.85;;;;;;;10.51;96.53;97463.94;10359226;28;20072;-54
2023/03/22 05:49:17;;;;;;;31.00;22.90;;;;;;;10.55;96.18;97465.66;10410622;28;20039;-54
2023/03/22 05:54:17;;;;;;;29.33;21.83;;;;;;;10.58;96.69;97470.81;10401240;28;20051;-54
2023/03/22 05:59:16;;;;;;;29.05;22.30;;;;;;;10.64;95.88;97479.47;10400393;28;20041;-54
2023/03/22 06:04:17;;;;;;;30.77;23.60;;;;;;;10.68;96.29;97470.75;10403291;28;20028;-54
2023/03/22 06:09:16;;;;;;;33.22;24.58;;;;;;;10.86;95.76;97482.78;10403228;28;20068;-54
2023/03/22 06:14:15;;;;;;;32.38;23.63;;;;;;;10.58;94.88;97447.47;10401309;28;20473;-54
2023/03/22 06:19:14;;;;;;;34.13;24.40;;;;;;;10.89;95.31;97486.22;10401038;28;20068;-54
2023/03/22 06:24:13;;;;;;;26.67;22.02;;;;;;;10.99;95.39;97487.91;10400465;28;20078;-57
2023/03/22 06:29:12;;;;;;;22.33;18.45;;;;;;;11.05;93.77;97487.00;10393854;28;20163;-55
2023/03/22 06:34:11;;;;;;;22.15;17.90;;;;;;;11.14;93.34;97481.72;10402641;28;20053;-55
2023/03/22 06:39:10;;;;;;;18.08;15.07;;;;;;;11.38;92.70;97493.66;10399592;28;20103;-54
2023/03/22 06:44:09;;;;;;;16.23;13.57;;;;;;;11.61;92.76;97492.59;10397031;28;20493;-54
2023/03/22 06:49:09;;;;;;;15.27;12.27;;;;;;;11.74;90.90;97504.63;10402402;28;20071;-56
2023/03/22 06:54:08;;;;;;;14.13;11.43;;;;;;;11.83;88.70;97499.31;10412412;28;20075;-55
2023/03/22 06:59:07;;;;;;;19.13;12.95;;;;;;;11.82;87.16;97507.13;10414046;28;20044;-55
2023/03/22 07:04:05;;;;;;;11.48;9.70;;;;;;;11.87;87.17;97511.38;10412878;28;20052;-56
2023/03/22 07:09:05;;;;;;;13.30;11.15;;;;;;;11.71;85.58;97514.16;10413412;28;20031;-55
2023/03/22 07:14:04;;;;;;;15.65;12.63;;;;;;;11.73;86.29;97520.22;10412169;28;20541;-54
2023/03/22 07:19:03;;;;;;;;;;;;;;;11.70;86.47;97523.69;10413330;28;20068;-54
2023/03/22 07:24:02;;;;;;;20.25;16.13;;;;;;;11.40;86.60;97478.91;10411999;28;19912;-55
2023/03/22 07:29:01;;;;;;;26.40;19.80;;;;;;;11.64;86.07;97532.44;10410711;28;20662;-54
2023/03/22 07:34:00;;;;;;;22.90;16.73;;;;;;;11.50;85.79;97542.06;10411484;28;20079;-54
2023/03/22 07:39:00;;;;;;;23.02;17.23;;;;;;;11.52;85.75;97536.84;10411580;28;20024;-55
2023/03/22 07:43:59;;;;;;;22.23;17.15;;;;;;;11.56;85.60;97546.34;10411896;28;20056;-54
2023/03/22 07:48:58;;;;;;;25.95;19.30;;;;;;;11.57;85.80;97540.28;10409802;28;20135;-54
2023/03/22 07:53:56;;;;;;;22.35;15.02;;;;;;;11.77;85.45;97542.72;10411252;28;20119;-54
2023/03/22 07:58:55;;;;;;;20.17;14.15;;;;;;;11.89;85.32;97547.78;10409815;28;20029;-54
2023/03/22 08:03:54;;;;;;;17.05;12.68;;;;;;;11.90;84.08;97557.34;10406440;28;20664;-54
2023/03/22 08:08:53;;;;;;;20.58;14.30;;;;;;;11.95;83.86;97549.50;10410692;28;20463;-54
2023/03/22 08:13:53;;;;;;;;;;;;;;;11.96;84.23;97566.81;10410575;28;20025;-55
2023/03/22 08:18:52;;;;;;;20.43;16.00;;;;;;;11.92;84.20;97567.69;10410272;28;19943;-53
2023/03/22 08:23:51;;;;;;;17.23;13.85;;;;;;;11.83;85.08;97564.31;10410909;28;20353;-54
2023/03/22 08:28:49;;;;;;;;;;;;;;;11.80;84.26;97566.94;10410399;28;20045;-53
2023/03/22 08:33:49;;;;;;;18.00;14.77;;;;;;;11.77;85.60;97560.91;10408678;28;20014;-53
2023/03/22 08:38:48;;;;;;;20.33;17.65;;;;;;;11.63;85.92;97530.69;10409135;28;20063;-53
2023/03/22 08:43:47;;;;;;;23.45;18.73;;;;;;;11.87;86.14;97567.72;10408736;28;20060;-53
2023/03/22 08:48:52;;;;;;;17.38;13.88;;;;;;;11.85;86.00;97572.09;10407432;28;20123;-53
2023/03/22 08:53:51;;;;;;;14.93;11.50;;;;;;;11.81;85.75;97573.00;10409429;28;20115;-53
2023/03/22 08:58:50;;;;;;;15.40;13.13;;;;;;;11.95;85.27;97576.34;10407956;28;20040;-53
2023/03/22 09:03:49;;;;;;;;;;;;;;;12.05;85.17;97582.31;10408212;28;20883;-53
2023/03/22 09:08:50;;;;;;;19.40;16.60;;;;;;;11.71;84.02;97534.97;10407660;28;20345;-53
2023/03/22 09:13:50;;;;;;;20.38;16.58;;;;;;;11.79;84.38;97547.00;10408130;28;20119;-53
2023/03/22 09:18:49;;;;;;;18.40;13.50;;;;;;;11.93;85.24;97569.44;10406442;28;20125;-53
2023/03/22 09:23:49;;;;;;;;;;;;;;;12.03;84.63;97582.31;10407334;28;20093;-53
2023/03/22 09:28:48;;;;;;;16.70;13.43;;;;;;;12.10;84.67;97583.13;10406278;28;19963;-53
2023/03/22 09:33:47;;;;;;;14.88;11.07;;;;;;;11.98;83.53;97581.50;10405835;28;20139;-53
2023/03/22 09:38:48;;;;;;;10.57;8.88;;;;;;;11.83;83.40;97587.72;10407205;28;20028;-54
2023/03/22 09:43:55;;;;;;;11.05;9.15;;;;;;;11.72;83.66;97588.69;10407600;28;20702;-52
2023/03/22 09:48:57;;;;;;;11.10;9.48;;;;;;;11.75;84.15;97586.91;10406583;28;20525;-51
2023/03/22 09:53:56;;;;;;;19.33;12.88;;;;;;;11.74;84.58;97590.41;10406641;28;20068;-53
2023/03/22 09:59:03;;;;;;;13.68;11.25;;;;;;;11.43;84.84;97554.25;10405165;28;20131;-52
2023/03/22 10:04:10;;;;;;;13.63;10.93;;;;;;;11.63;84.65;97595.66;10405013;28;20104;-53
2023/03/22 10:09:18;;;;;;;22.95;16.20;;;;;;;11.80;86.51;97598.13;10404193;28;20112;-54
2023/03/22 10:14:35;;;;;;;13.95;9.45;;;;;;;11.76;84.62;97590.38;10404209;28;20075;-53
2023/03/22 10:19:50;;;;;;;118.82;42.92;;;;;;;11.77;82.46;97592.97;10403872;28;20115;-54
2023/03/22 10:24:51;;;;;;;51.25;28.88;;;;;;;11.73;83.98;97601.66;10405008;28;20104;-54
2023/03/22 10:30:18;;;;;;;32.60;20.63;;;;;;;11.92;84.49;97596.31;10404210;28;21054;-54
2023/03/22 10:35:17;;;;;;;20.45;17.38;;;;;;;12.16;83.82;97566.59;10404972;28;20445;-53
2023/03/22 10:40:18;;;;;;;;;;;;;;;12.43;82.30;97587.13;10405741;28;20068;-53
2023/03/22 10:45:19;;;;;;;13.05;10.23;;;;;;;12.59;81.37;97584.38;10404967;28;20413;-53
2023/03/22 10:50:27;;;;;;;12.63;9.80;;;;;;;12.35;80.70;97538.69;10405118;28;20063;-54
2023/03/22 10:55:26;;;;;;;10.00;7.20;;;;;;;12.51;78.53;97576.66;10404461;28;20075;-54
2023/03/22 11:00:27;;;;;;;8.38;6.30;;;;;;;12.47;78.49;97572.38;10404552;28;20120;-52
2023/03/22 11:05:28;;;;;;;10.23;6.43;;;;;;;12.26;77.73;97571.69;10405633;28;20537;-53
2023/03/22 11:10:31;;;;;;;7.72;6.18;;;;;;;11.77;78.30;97576.50;10404893;28;20079;-53
2023/03/22 11:15:32;;;;;;;8.25;6.80;;;;;;;11.21;80.89;97576.91;10404909;28;20079;-52
2023/03/22 11:20:33;;;;;;;12.73;9.35;;;;;;;11.01;82.98;97564.06;10404218;28;20055;-55
2023/03/22 11:25:35;;;;;;;9.02;7.05;;;;;;;11.08;82.32;97564.00;10404731;28;20076;-52
2023/03/22 11:30:34;;;;;;;13.80;10.20;;;;;;;10.86;83.27;97571.88;10403939;28;20083;-52
2023/03/22 11:35:36;;;;;;;15.45;11.75;;;;;;;10.74;84.63;97566.78;10402185;28;20072;-52
2023/03/22 11:40:35;;;;;;;18.38;14.70;;;;;;;10.80;85.76;97564.16;10409120;28;20112;-52
2023/03/22 11:45:40;;;;;;;54.88;35.70;;;;;;;10.75;87.46;97539.94;10423584;28;20075;-53
2023/03/22 11:50:42;;;;;;;10.88;8.50;;;;;;;10.97;87.73;97551.97;10411718;28;20119;-54
2023/03/22 11:55:41;;;;;;;11.98;8.75;;;;;;;11.14;87.66;97553.59;10408643;28;20123;-53
2023/03/22 12:00:41;;;;;;;16.45;12.48;;;;;;;11.11;88.43;97558.81;10407091;28;20161;-53
2023/03/22 12:05:43;;;;;;;11.73;9.13;;;;;;;11.10;88.01;97554.47;10411006;28;20051;-58
2023/03/22 12:10:47;;;;;;;12.25;7.55;;;;;;;10.88;88.46;97557.22;10410406;28;20075;-53
2023/03/22 12:15:51;;;;;;;10.15;7.72;;;;;;;10.76;89.46;97558.09;10410766;28;20078;-54
2023/03/22 12:20:58;;;;;;;10.23;7.95;;;;;;;10.76;90.65;97565.03;10410632;28;20591;-53
2023/03/22 12:26:03;;;;;;;17.15;13.70;;;;;;;10.50;89.60;97518.44;10410226;28;20067;-54
2023/03/22 12:31:04;;;;;;;59.05;50.67;;;;;;;10.65;90.63;97559.03;10409423;28;20112;-54
2023/03/22 12:36:05;;;;;;;13.80;11.57;;;;;;;10.76;91.30;97559.84;10409717;28;20067;-53
2023/03/22 12:41:10;;;;;;;15.82;13.40;;;;;;;10.73;91.23;97500.13;10409567;28;20044;-53
2023/03/22 12:46:16;;;;;;;20.70;18.23;;;;;;;11.35;91.46;97563.81;10409379;28;20138;-53
2023/03/22 12:51:15;;;;;;;14.13;11.45;;;;;;;11.39;90.74;97564.69;10410196;28;20128;-53
2023/03/22 12:56:17;;;;;;;14.68;11.63;;;;;;;11.71;91.11;97553.16;10407697;28;20033;-53
2023/03/22 13:01:42;;;;;;;13.63;11.02;;;;;;;11.88;90.62;97554.72;10409105;28;20055;-53
2023/03/22 13:06:42;;;;;;;18.58;14.18;;;;;;;12.12;89.75;97557.97;10404276;28;20127;-53
2023/03/22 13:11:47;;;;;;;13.88;11.77;;;;;;;12.17;88.42;97555.31;10408996;28;20601;-53
2023/03/22 13:16:54;;;;;;;13.43;10.80;;;;;;;12.04;88.12;97547.66;10408386;28;20474;-53
2023/03/22 13:22:13;;;;;;;13.48;10.65;;;;;;;12.03;87.24;97552.84;10406896;28;20068;-53
2023/03/22 13:27:15;;;;;;;15.40;12.05;;;;;;;11.98;86.34;97549.44;10404915;28;20068;-53
2023/03/22 13:32:32;;;;;;;16.63;13.43;;;;;;;11.81;86.53;97553.06;10406073;28;20128;-54
2023/03/22 13:37:44;;;;;;;19.02;14.93;;;;;;;11.75;86.67;97553.13;10407035;28;20094;-53
2023/03/22 13:42:43;;;;;;;22.48;19.35;;;;;;;11.69;87.71;97540.19;10407650;28;20064;-53
2023/03/22 13:47:45;;;;;;;23.33;19.35;;;;;;;11.67;87.82;97553.19;10405609;28;20032;-52
2023/03/22 13:53:06;;;;;;;19.10;15.85;;;;;;;11.63;86.48;97545.44;10406718;28;20119;-53
2023/03/22 13:58:10;;;;;;;30.75;23.58;;;;;;;11.51;88.13;97541.19;10446428;28;20072;-53
2023/03/22 14:03:16;;;;;;;27.63;22.80;;;;;;;11.59;87.60;97554.13;10407183;28;20044;-53
2023/03/22 14:08:22;;;;;;;14.95;11.27;;;;;;;11.41;86.32;97553.41;10406133;28;20075;-52
2023/03/22 14:13:36;;;;;;;23.55;18.85;;;;;;;11.29;87.35;97552.63;10406120;28;20115;-53
2023/03/22 14:18:40;;;;;;;15.45;12.68;;;;;;;11.01;88.15;97495.66;10406494;28;20517;-54
2023/03/22 14:23:44;;;;;;;20.67;16.92;;;;;;;11.52;88.98;97555.03;10405804;28;20079;-52
2023/03/22 14:28:43;;;;;;;24.40;20.67;;;;;;;11.68;89.21;97551.44;10405104;28;20091;-53
2023/03/22 14:33:43;;;;;;;;;;;;;;;11.85;88.87;97551.28;10406831;28;20100;-53
2023/03/22 14:38:45;;;;;;;15.50;12.00;;;;;;;12.08;88.80;97546.72;10406435;28;20401;-53
2023/03/22 14:43:46;;;;;;;15.38;12.13;;;;;;;12.26;88.91;97534.41;10405436;28;20087;-53
2023/03/22 14:48:52;;;;;;;18.33;13.38;;;;;;;12.50;87.34;97554.09;10407164;28;20080;-53
2023/03/22 14:53:51;;;;;;;23.15;18.10;;;;;;;12.65;87.94;97556.53;10405473;28;20119;-53
2023/03/22 14:58:52;;;;;;;;;;;;;;;12.83;86.41;97547.59;10405726;28;20055;-54
2023/03/22 15:03:57;;;;;;;23.50;16.58;;;;;;;12.86;86.09;97551.91;10404316;28;19970;-54
2023/03/22 15:09:05;;;;;;;19.38;14.55;;;;;;;12.85;85.86;97553.66;10402493;28;20055;-55
2023/03/22 15:14:08;;;;;;;18.53;14.63;;;;;;;12.30;85.84;97458.09;10406585;28;20111;-54
2023/03/22 15:19:12;;;;;;;13.90;11.25;;;;;;;12.96;84.18;97568.28;10410465;28;20064;-54
2023/03/22 15:24:36;;;;;;;17.45;12.77;;;;;;;12.91;84.60;97556.19;10447154;28;20512;-54
2023/03/22 15:29:35;;;;;;;23.20;17.52;;;;;;;13.04;83.45;97561.22;10410605;28;20542;-53
2023/03/22 15:34:34;;;;;;;;;;;;;;;13.13;82.55;97567.16;10411574;28;20343;-53
2023/03/22 15:39:36;;;;;;;19.60;16.13;;;;;;;12.78;81.08;97515.56;10411376;28;20494;-59
2023/03/22 15:44:37;;;;;;;18.00;14.38;;;;;;;12.77;80.81;97531.22;10411876;28;20509;-54
2023/03/22 15:49:48;;;;;;;19.85;15.73;;;;;;;12.67;80.02;97561.69;10411359;28;20056;-54
2023/03/22 15:55:18;;;;;;;21.02;17.65;;;;;;;12.40;80.64;97563.75;10407924;28;20443;-52
2023/03/22 16:00:32;;;;;;;22.70;17.67;;;;;;;12.18;81.58;97563.13;10406627;28;20111;-52
2023/03/22 16:05:33;;;;;;;25.00;19.10;;;;;;;11.91;81.85;97537.38;10409955;28;20714;-54
2023/03/22 16:10:34;;;;;;;36.58;28.27;;;;;;;12.00;82.47;97568.50;10410947;28;20471;-53
2023/03/22 16:15:33;;;;;;;38.40;29.65;;;;;;;11.94;82.79;97572.00;10409447;28;20128;-53
2023/03/22 16:20:32;;;;;;;;;;;;;;;11.90;83.48;97578.13;10411013;28;20071;-51
2023/03/22 16:25:33;;;;;;;44.40;37.10;;;;;;;11.80;83.67;97582.53;10408557;28;19955;-54
2023/03/22 16:30:35;;;;;;;49.55;38.42;;;;;;;11.75;83.34;97591.25;10408141;28;20075;-57
2023/03/22 16:35:34;;;;;;;68.65;47.33;;;;;;;11.67;83.89;97602.56;10408517;28;20111;-54
2023/03/22 16:40:34;;;;;;;50.33;39.55;;;;;;;11.59;83.82;97608.69;10408893;28;20502;-53
2023/03/22 16:45:33;;;;;;;59.15;44.42;;;;;;;11.53;83.70;97613.97;10409992;28;20059;-53
2023/03/22 16:50:35;;;;;;;63.85;47.95;;;;;;;11.39;84.62;97588.06;10404176;28;20472;-52
2023/03/22 17:01:34;;;;;;;84.20;62.05;;;;;;;11.48;85.75;97623.50;10407313;28;20072;-52
2023/03/22 17:06:33;;;;;;;92.00;69.15;;;;;;;11.45;86.19;97626.97;10448792;28;20070;-52
2023/03/22 17:11:32;;;;;;;110.90;81.63;;;;;;;11.42;86.51;97633.06;10449059;28;20028;-52
2023/03/22 17:16:35;;;;;;;99.57;76.78;;;;;;;11.47;87.05;97643.44;10448692;28;20028;-52
2023/03/22 17:21:34;;;;;;;78.40;59.17;;;;;;;11.46;86.88;97645.16;10448941;28;20048;-55
2023/03/22 17:26:33;;;;;;;79.47;59.95;;;;;;;11.35;86.77;97635.72;10445428;28;20048;-54
2023/03/22 17:31:33;;;;;;;78.30;61.45;;;;;;;11.39;86.74;97653.88;10463767;28;20047;-54
2023/03/22 17:36:32;;;;;;;78.57;60.53;;;;;;;11.35;86.90;97654.75;10447948;28;20058;-53
2023/03/22 17:41:31;;;;;;;;;;;;;;;11.40;86.97;97660.78;10448156;28;20060;-53
2023/03/22 17:46:30;;;;;;;67.95;53.40;;;;;;;11.39;87.07;97674.66;10447809;28;19911;-51
2023/03/22 17:51:30;;;;;;;82.18;60.47;;;;;;;11.34;87.44;97679.03;10445260;28;20090;-54
2023/03/22 17:56:29;;;;;;;72.85;56.70;;;;;;;11.33;87.72;97682.47;10446251;28;20844;-53
2023/03/22 18:01:28;;;;;;;79.82;61.22;;;;;;;11.31;87.33;97683.34;10447573;28;20413;-53
2023/03/22 18:06:27;;;;;;;88.28;66.65;;;;;;;11.14;87.81;97652.28;10438220;28;20063;-53
2023/03/22 18:11:26;;;;;;;89.53;67.80;;;;;;;11.22;87.66;97677.34;10443517;28;20139;-52
2023/03/22 18:16:25;;;;;;;82.95;59.55;;;;;;;10.94;87.32;97648.06;10442435;28;20425;-52
2023/03/22 18:21:24;;;;;;;57.92;45.50;;;;;;;11.18;88.03;97692.97;10442598;28;20019;-52
2023/03/22 18:26:23;;;;;;;52.33;39.38;;;;;;;11.02;88.01;97681.75;10441394;28;20080;-52
2023/03/22 18:31:22;;;;;;;52.22;38.55;;;;;;;11.08;88.08;97688.66;10440731;28;20135;-52
2023/03/22 18:36:23;;;;;;;54.53;41.95;;;;;;;11.13;87.53;97694.72;10438993;28;20127;-52
2023/03/22 18:41:21;;;;;;;52.17;41.50;;;;;;;11.12;87.45;97704.22;10440594;28;20067;-53
2023/03/22 18:46:20;;;;;;;58.47;45.42;;;;;;;11.14;88.27;97707.69;10441079;28;20028;-53
2023/03/22 18:51:19;;;;;;;64.13;48.92;;;;;;;11.18;87.92;97711.13;10442173;28;20067;-53
2023/03/22 18:56:18;;;;;;;;;;;;;;;11.15;87.76;97701.63;10439853;28;20044;-53
2023/03/22 19:01:17;;;;;;;64.90;50.08;;;;;;;11.04;88.03;97682.63;10441747;28;19912;-53
2023/03/22 19:06:17;;;;;;;;;;;;;;;11.17;87.55;97704.19;10442259;28;20442;-53
2023/03/22 19:11:16;;;;;;;59.73;45.13;;;;;;;11.18;87.17;97705.94;10441894;28;19943;-51
2023/03/22 19:16:15;;;;;;;;;;;;;;;11.16;87.33;97698.16;10441377;28;20067;-52
2023/03/22 19:21:13;;;;;;;67.65;49.80;;;;;;;11.12;87.63;97701.63;10441139;28;19969;-51
2023/03/22 19:26:12;;;;;;;88.97;65.93;;;;;;;11.10;87.69;97700.75;10440367;28;20062;-52
2023/03/22 19:31:12;;;;;;;95.20;68.03;;;;;;;11.08;88.07;97699.94;10440646;28;20119;-53
2023/03/22 19:36:11;;;;;;;77.53;55.63;;;;;;;10.90;87.66;97677.47;10440575;28;20038;-54
2023/03/22 19:41:09;;;;;;;;;;;;;;;10.98;87.96;97701.66;10440684;28;20593;-52
2023/03/22 19:46:08;;;;;;;60.42;45.28;;;;;;;10.99;87.86;97684.38;10439410;28;20366;-53
2023/03/22 19:51:07;;;;;;;;;;;;;;;10.92;87.45;97688.72;10440712;28;20119;-51
2023/03/22 19:56:08;;;;;;;63.75;46.33;;;;;;;10.88;88.00;97681.81;10440003;28;19919;-53
2023/03/22 20:01:09;;;;;;;63.47;46.38;;;;;;;10.81;87.45;97680.06;10443347;28;20116;-52
2023/03/22 20:06:10;;;;;;;69.50;49.60;;;;;;;10.69;87.76;97680.13;10447203;28;20063;-52
2023/03/22 20:11:09;;;;;;;78.53;53.63;;;;;;;10.66;87.26;97675.81;10447796;28;20064;-53
2023/03/22 20:16:08;;;;;;;86.68;58.03;;;;;;;10.55;87.06;97670.63;10428249;28;20068;-53
2023/03/22 20:21:06;;;;;;;87.80;58.70;;;;;;;9.97;87.03;97604.16;10446904;28;20028;-52
2023/03/22 20:26:05;;;;;;;75.22;52.40;;;;;;;10.24;87.61;97674.13;10445882;28;20047;-52
2023/03/22 20:31:06;;;;;;;76.65;51.03;;;;;;;10.05;87.83;97681.94;10444981;28;20153;-52
2023/03/22 20:36:07;;;;;;;91.97;62.45;;;;;;;9.78;88.03;97687.97;10445557;28;20099;-52
2023/03/22 20:41:07;;;;;;;103.45;68.85;;;;;;;9.61;89.09;97698.31;10444557;28;20499;-52
2023/03/22 20:46:06;;;;;;;102.00;68.35;;;;;;;9.36;89.24;97689.59;10449045;28;20521;-52
2023/03/22 20:51:06;;;;;;;95.53;59.35;;;;;;;9.16;90.17;97679.19;10444864;28;20518;-52
2023/03/22 20:56:07;;;;;;;112.35;68.65;;;;;;;9.15;91.01;97695.56;10445750;28;20075;-51
2023/03/22 21:01:08;;;;;;;91.63;56.28;;;;;;;9.20;90.66;97688.66;10443557;28;20064;-55
2023/03/22 21:06:10;;;;;;;85.70;56.00;;;;;;;9.21;90.74;97690.41;10446613;28;20068;-52
2023/03/22 21:11:10;;;;;;;106.05;67.20;;;;;;;9.18;90.68;97686.94;10445564;28;20098;-53
2023/03/22 21:16:16;;;;;;;125.30;80.43;;;;;;;9.06;90.95;97677.38;10444404;28;20127;-53
2023/03/22 21:21:15;;;;;;;120.47;74.95;;;;;;;9.08;90.96;97697.25;10445694;28;20107;-53
2023/03/22 21:26:14;;;;;;;103.57;65.00;;;;;;;9.03;91.30;97690.34;10444567;28;20438;-53
2023/03/22 21:31:14;;;;;;;91.72;57.25;;;;;;;8.97;91.17;97692.88;10443397;28;20566;-52
2023/03/22 21:36:14;;;;;;;104.85;63.28;;;;;;;9.02;91.40;97704.13;10464336;28;20594;-52
2023/03/22 21:41:15;;;;;;;96.38;63.88;;;;;;;9.07;91.12;97703.28;10444574;28;20075;-52
2023/03/22 21:46:17;;;;;;;100.55;69.18;;;;;;;9.12;91.72;97705.91;10445020;28;20048;-53
2023/03/22 21:51:16;;;;;;;81.88;59.17;;;;;;;9.02;91.87;97698.94;10443411;28;20218;-53
2023/03/22 21:56:15;;;;;;;;;;;;;;;8.99;92.27;97706.69;10445223;28;20513;-52
2023/03/22 22:01:14;;;;;;;67.65;45.40;;;;;;;8.82;93.01;97704.91;10444472;28;19999;-52
2023/03/22 22:06:14;;;;;;;96.65;59.05;;;;;;;8.79;92.98;97704.03;10464696;28;20497;-53
2023/03/22 22:11:13;;;;;;;63.38;43.88;;;;;;;8.96;93.10;97698.94;10443828;28;20106;-54
2023/03/22 22:16:12;;;;;;;106.28;63.80;;;;;;;9.01;92.55;97690.31;10442972;28;20144;-53
2023/03/22 22:21:13;;;;;;;117.78;75.78;;;;;;;9.03;92.41;97690.34;10459616;28;20490;-53
2023/03/22 22:26:13;;;;;;;98.10;62.15;;;;;;;9.11;92.35;97694.69;10442786;28;20063;-51
2023/03/22 22:31:17;;;;;;;79.90;53.72;;;;;;;9.15;92.31;97686.06;10442713;28;20504;-52
2023/03/22 22:36:16;;;;;;;74.47;50.70;;;;;;;9.11;92.22;97699.88;10443258;28;20067;-51
2023/03/22 22:41:16;;;;;;;82.65;56.42;;;;;;;9.08;91.90;97693.81;10424861;28;20582;-52
2023/03/22 22:46:15;;;;;;;104.40;72.20;;;;;;;9.10;92.17;97699.84;10443028;28;20056;-53
2023/03/22 22:51:18;;;;;;;90.90;63.50;;;;;;;9.07;91.54;97702.44;10442730;28;20039;-54
2023/03/22 22:56:19;;;;;;;77.75;54.38;;;;;;;9.07;91.80;97699.84;10443460;28;20127;-51
2023/03/22 23:01:19;;;;;;;82.80;55.35;;;;;;;9.14;91.37;97711.97;10442437;28;20115;-50
2023/03/22 23:06:21;;;;;;;82.57;55.88;;;;;;;9.22;91.36;97712.84;10442564;28;20063;-52
2023/03/22 23:11:22;;;;;;;57.80;39.40;;;;;;;9.23;91.35;97718.88;10433577;28;20107;-52